Decatur, IL (62522)

11:28 PM CDT on July 24, 2016 (GMT -0500)
Sanitary District of Decatur | | Change Station

Elev 604 ft 39.84 °N, 89.00 °W | Updated 7 seconds ago

Heavy Thunderstorms and Rain
Heavy Thunderstorm Rain Fog
74.5 °F
Feels Like 73 °F
N
4.2
Wind Variable Wind from ESE

Today
High -- | Low -- °F
--% Chance of Precip.
Yesterday
High -- | Low -- °F
Precip. -- in
Pressure 30.02 in
Visibility 0.5 miles
Clouds Mostly Cloudy 700 ft
Overcast 1700 ft
Heat Index 73 °F
Dew Point 71 °F
Humidity 89%
Rainfall 0.51 in
Snow Depth Not available.
5:48 AM 8:16 PM
Waning Gibbous, 70% visible
SPECI KDEC 250426Z AUTO 36016G27KT 1/2SM +TSRA FG BKN007 OVC017 23/22 A3002 RMK AO2 PK WND 04028/0358 WSHFT 0349 LTG DSNT ALQDS RAB07 TSE02B08 P0104 T02280222
Pressure 30.02 in
Visibility 0.5 miles
Clouds Mostly Cloudy 700 ft
Overcast 1700 ft
Heat Index 73 °F
Dew Point 71 °F
Humidity 89%
Rainfall 0.51 in
Snow Depth Not available.
5:48 AM 8:16 PM
Waning Gibbous, 70% visible
SPECI KDEC 250426Z AUTO 36016G27KT 1/2SM +TSRA FG BKN007 OVC017 23/22 A3002 RMK AO2 PK WND 04028/0358 WSHFT 0349 LTG DSNT ALQDS RAB07 TSE02B08 P0104 T02280222

10-Day Weather Forecast

Almanac

Astronomy

Jul. 24, 2016 Rise Set
Actual Time
Civil Twilight
Nautical Twilight
Astronomical Twilight
Moon
Length of Visible Light
Length of Day
Tomorrow will be .
, % of the Moon is Illuminated

Today's Extremes

State Highs State Lows

Community

WunderPhotos

Upload Photos

1,927,264 photos uploaded!

WunderBlog® & News

Nearby

Air Quality

  Air Quality AQ Index Pollutant
Not available.

Snow Depth

Station Depth Elevation

Earthquake Activity

City Distance Mag. Time & Date
Minimum magnitude displayed is 2.5.

Coastal Water Temperatures

Place Temperature

Stations

Nearby Weather Stations

Station Location Temp. Windchill Dew Point Humidity Wind Precip. Elev Updated Type
                   

Watches & Warnings

There are currently no watches in effect.